createdAt,value
2018-04-10T00:01:26.197Z,26.47
2018-04-10T00:04:02.859Z,26.33
2018-04-10T00:06:32.645Z,27.50
2018-04-10T00:09:00.655Z,27.70
2018-04-10T00:11:28.523Z,29.03
2018-04-10T00:14:04.057Z,27.43
2018-04-10T00:16:42.632Z,26.80
2018-04-10T00:19:15.721Z,27.93
2018-04-10T00:21:47.584Z,27.03
2018-04-10T00:24:25.651Z,28.83
2018-04-10T00:26:54.257Z,27.23
2018-04-10T00:29:25.723Z,28.67
2018-04-10T00:31:56.695Z,29.70
2018-04-10T00:34:24.591Z,29.00
2018-04-10T00:36:52.519Z,30.13
2018-04-10T00:39:20.408Z,30.03
2018-04-10T00:41:48.530Z,29.77
2018-04-10T00:44:16.489Z,30.70
2018-04-10T00:46:44.449Z,31.00
2018-04-10T00:49:12.321Z,30.70
2018-04-10T00:54:15.103Z,29.77
2018-04-10T00:56:49.526Z,32.10
2018-04-10T00:59:18.035Z,31.93
2018-04-10T01:01:45.889Z,30.80
2018-04-10T01:04:21.994Z,30.60
2018-04-10T01:06:57.896Z,32.03
2018-04-10T01:09:25.738Z,31.93
2018-04-10T01:11:53.573Z,32.93
2018-04-10T01:14:34.218Z,30.70
2018-04-10T01:17:08.788Z,31.97
2018-04-10T01:22:39.157Z,30.50
2018-04-10T01:25:08.295Z,30.50
2018-04-10T01:27:36.147Z,31.50
2018-04-10T01:30:05.607Z,30.87
2018-04-10T01:32:33.465Z,31.40
2018-04-10T01:35:10.204Z,30.30
2018-04-10T01:37:41.467Z,31.20
2018-04-10T01:40:09.356Z,30.83
2018-04-10T01:42:37.189Z,31.70
2018-04-10T01:45:05.041Z,29.80
2018-04-10T01:47:32.883Z,29.87
2018-04-10T01:50:00.817Z,29.67
2018-04-10T01:52:28.664Z,30.67
2018-04-10T01:54:56.496Z,30.37
2018-04-10T01:57:24.462Z,30.47
2018-04-10T01:59:52.291Z,31.70
2018-04-10T02:02:20.345Z,31.07
2018-04-10T02:04:48.209Z,31.60
2018-04-10T02:07:16.060Z,32.67
2018-04-10T02:10:02.416Z,32.43
2018-04-10T02:12:30.312Z,33.17
2018-04-10T02:14:58.177Z,32.07
2018-04-10T02:17:26.042Z,33.00
2018-04-10T02:19:53.874Z,32.50
2018-04-10T02:22:21.709Z,31.27
2018-04-10T02:24:49.608Z,32.13
2018-04-10T02:27:17.458Z,31.87
2018-04-10T02:29:45.309Z,33.00
2018-04-10T02:32:13.173Z,32.57
2018-04-10T02:34:41.013Z,32.13
2018-04-10T02:37:08.845Z,31.67
2018-04-10T02:39:36.725Z,33.73
2018-04-10T02:42:04.587Z,33.77
2018-04-10T02:44:32.418Z,34.07
2018-04-10T02:47:00.293Z,32.73
2018-04-10T02:49:28.305Z,31.93
2018-04-10T02:51:56.136Z,33.27
2018-04-10T02:54:24.021Z,33.40
2018-04-10T02:56:51.867Z,34.23
2018-04-10T02:59:19.704Z,33.23
2018-04-10T03:01:47.571Z,34.50
2018-04-10T03:04:15.499Z,34.80
2018-04-10T03:06:43.378Z,35.20
2018-04-10T03:09:11.273Z,35.30
2018-04-10T03:11:39.109Z,34.80
2018-04-10T03:14:06.945Z,34.90
2018-04-10T03:16:34.902Z,35.60
2018-04-10T03:19:02.762Z,35.47
2018-04-10T03:21:30.611Z,35.03
2018-04-10T03:23:58.502Z,34.87
2018-04-10T03:26:26.333Z,36.70
2018-04-10T03:28:54.216Z,34.27
2018-04-10T03:31:22.073Z,35.73
2018-04-10T03:33:49.920Z,36.00
2018-04-10T03:36:17.767Z,36.27
2018-04-10T03:38:45.650Z,36.70
2018-04-10T03:41:13.495Z,36.70
2018-04-10T03:43:41.338Z,36.60
2018-04-10T03:46:09.215Z,36.10
2018-04-10T03:48:37.073Z,35.63
2018-04-10T03:51:04.936Z,34.60
2018-04-10T03:53:32.829Z,35.23
2018-04-10T03:56:00.676Z,37.50
2018-04-10T03:58:28.517Z,36.40
2018-04-10T04:00:56.419Z,35.97
2018-04-10T04:03:24.258Z,35.40
2018-04-10T04:05:52.426Z,38.20
2018-04-10T04:08:20.323Z,36.73
2018-04-10T04:10:48.157Z,37.10
2018-04-10T04:13:16.063Z,35.87
2018-04-10T04:15:43.937Z,35.88
2018-04-10T04:18:17.952Z,36.07
2018-04-10T04:20:51.982Z,36.27
2018-04-10T04:23:19.823Z,35.07
2018-04-10T04:25:47.702Z,36.37
2018-04-10T04:28:15.542Z,35.80
2018-04-10T04:30:43.404Z,34.60
2018-04-10T04:33:11.251Z,36.93
2018-04-10T04:35:39.103Z,34.57
2018-04-10T04:38:06.954Z,36.03
2018-04-10T04:40:34.799Z,35.33
2018-04-10T04:43:02.752Z,36.50
2018-04-10T04:45:30.610Z,33.70
2018-04-10T04:47:58.470Z,36.90
2018-04-10T04:50:26.378Z,34.87
2018-04-10T04:52:54.223Z,35.30
2018-04-10T04:55:22.158Z,35.43
2018-04-10T04:57:49.990Z,36.13
2018-04-10T05:00:17.853Z,36.30
2018-04-10T05:02:45.711Z,34.30
2018-04-10T05:05:14.676Z,34.20
2018-04-10T05:07:42.511Z,35.67
2018-04-10T05:10:10.342Z,34.40
2018-04-10T05:12:38.206Z,33.87
2018-04-10T05:15:06.078Z,34.87
2018-04-10T05:17:33.940Z,34.97
2018-04-10T05:20:01.787Z,34.80
2018-04-10T05:22:29.641Z,34.50
2018-04-10T05:24:57.540Z,34.07
2018-04-10T05:27:25.453Z,34.33
2018-04-10T05:29:53.337Z,34.63
2018-04-10T05:32:21.212Z,34.57
2018-04-10T05:34:49.050Z,34.33
2018-04-10T05:37:16.890Z,32.63
2018-04-10T05:39:44.756Z,34.30
2018-04-10T05:42:12.780Z,32.77
2018-04-10T05:44:40.633Z,34.43
2018-04-10T05:47:08.512Z,33.97
2018-04-10T05:49:36.399Z,34.90
2018-04-10T05:52:04.255Z,35.60
2018-04-10T05:54:32.139Z,33.53
2018-04-10T05:56:59.981Z,33.07
2018-04-10T05:59:27.830Z,32.17
2018-04-10T06:01:55.807Z,33.20
2018-04-10T06:04:23.642Z,32.97
2018-04-10T06:06:51.491Z,32.70
2018-04-10T06:09:19.370Z,32.20
2018-04-10T06:11:47.227Z,32.97
2018-04-10T06:14:18.599Z,33.63
2018-04-10T06:16:46.550Z,33.67
2018-04-10T06:19:14.443Z,32.53
2018-04-10T06:21:42.307Z,33.13
2018-04-10T06:24:10.185Z,32.93
2018-04-10T06:26:38.023Z,31.90
2018-04-10T06:29:05.923Z,33.03
2018-04-10T06:31:33.790Z,32.00
2018-04-10T06:34:01.714Z,31.27
2018-04-10T06:36:29.538Z,32.23
2018-04-10T06:38:57.419Z,32.30
2018-04-10T06:41:25.293Z,31.67
2018-04-10T06:43:53.175Z,31.70
2018-04-10T06:46:21.069Z,31.60
2018-04-10T06:48:48.955Z,32.37
2018-04-10T06:51:16.842Z,31.80
2018-04-10T06:53:44.741Z,30.47
2018-04-10T06:56:12.657Z,31.60
2018-04-10T06:58:40.535Z,31.90
2018-04-10T07:01:08.502Z,31.37
2018-04-10T07:03:36.341Z,30.73
2018-04-10T07:06:04.215Z,32.30
2018-04-10T07:08:32.118Z,30.77
2018-04-10T07:11:00.015Z,31.70
2018-04-10T07:13:28.030Z,32.30
2018-04-10T07:15:55.904Z,30.73
2018-04-10T07:18:23.963Z,30.83
2018-04-10T07:20:51.869Z,31.60
2018-04-10T07:23:19.775Z,31.53
2018-04-10T07:25:47.673Z,31.43
2018-04-10T07:28:15.616Z,31.30
2018-04-10T07:30:44.418Z,31.23
2018-04-10T07:33:12.299Z,31.97
2018-04-10T07:35:40.200Z,31.90
2018-04-10T07:38:08.042Z,29.90
2018-04-10T07:40:35.946Z,30.43
2018-04-10T07:43:03.812Z,31.90
2018-04-10T07:45:31.667Z,31.20
2018-04-10T07:47:59.628Z,30.90
2018-04-10T07:50:27.487Z,31.37
2018-04-10T07:52:55.458Z,32.30
2018-04-10T07:55:23.405Z,32.37
2018-04-10T07:57:51.310Z,32.00
2018-04-10T08:00:19.198Z,31.20
2018-04-10T08:02:47.059Z,30.03
2018-04-10T08:05:14.995Z,31.53
2018-04-10T08:07:42.888Z,30.70
2018-04-10T08:10:10.839Z,30.80
2018-04-10T08:12:38.761Z,30.30
2018-04-10T08:15:06.632Z,30.50
2018-04-10T08:17:34.596Z,31.63
2018-04-10T08:20:02.467Z,30.00
2018-04-10T08:22:30.333Z,30.90
2018-04-10T08:24:58.203Z,30.53
2018-04-10T08:27:26.119Z,30.13
2018-04-10T08:29:53.999Z,30.30
2018-04-10T08:32:21.970Z,30.10
2018-04-10T08:34:49.842Z,29.50
2018-04-10T08:37:17.784Z,29.53
2018-04-10T08:39:45.722Z,27.90
2018-04-10T08:42:13.710Z,28.50
2018-04-10T08:44:41.759Z,27.60
2018-04-10T08:47:09.607Z,28.50
2018-04-10T08:49:37.458Z,26.67
2018-04-10T08:52:05.358Z,27.30
2018-04-10T08:54:33.222Z,26.60
2018-04-10T08:57:01.104Z,26.63
2018-04-10T08:59:28.968Z,25.50
2018-04-10T09:01:56.854Z,26.57
2018-04-10T09:04:24.694Z,24.90
2018-04-10T09:06:52.593Z,25.17
2018-04-10T09:09:20.585Z,25.67
2018-04-10T09:11:48.431Z,25.80
2018-04-10T09:14:16.299Z,24.83
2018-04-10T09:16:44.147Z,25.50
2018-04-10T09:19:12.040Z,24.00
2018-04-10T09:21:39.878Z,25.00
2018-04-10T09:24:07.708Z,24.60
2018-04-10T09:26:35.566Z,24.40
2018-04-10T09:29:03.423Z,23.17
2018-04-10T09:31:31.330Z,23.90
2018-04-10T09:33:59.615Z,22.87
2018-04-10T09:36:27.565Z,23.27
2018-04-10T09:38:55.426Z,23.60
2018-04-10T09:41:23.413Z,23.50
2018-04-10T09:43:51.293Z,23.17
2018-04-10T09:46:19.126Z,21.83
2018-04-10T09:48:47.002Z,22.40
2018-04-10T09:51:14.880Z,22.50
2018-04-10T09:53:42.755Z,22.50
2018-04-10T09:56:10.626Z,22.20
2018-04-10T09:58:38.520Z,21.80
2018-04-10T10:01:06.371Z,22.63
2018-04-10T10:03:34.243Z,22.40
2018-04-10T10:06:02.117Z,22.40
2018-04-10T10:08:29.978Z,23.57
2018-04-10T10:10:57.959Z,22.87
2018-04-10T10:13:25.822Z,21.67
2018-04-10T10:15:53.672Z,22.00
2018-04-10T10:18:21.511Z,21.60
2018-04-10T10:20:49.420Z,21.40
2018-04-10T10:23:17.268Z,21.50
2018-04-10T10:25:45.119Z,21.70
2018-04-10T10:28:12.991Z,21.80
2018-04-10T10:30:40.846Z,21.70
2018-04-10T10:33:08.695Z,21.67
2018-04-10T10:35:36.634Z,20.03
2018-04-10T10:38:04.516Z,21.20
2018-04-10T10:40:32.392Z,21.03
2018-04-10T10:43:00.274Z,20.20
2018-04-10T10:45:28.123Z,20.10
2018-04-10T10:47:55.993Z,19.20
2018-04-10T10:50:23.928Z,19.50
2018-04-10T10:52:51.761Z,19.70
2018-04-10T10:55:19.619Z,20.87
2018-04-10T10:57:48.342Z,19.60
2018-04-10T11:00:16.206Z,18.70
2018-04-10T11:02:44.088Z,19.33
2018-04-10T11:05:12.505Z,19.23
2018-04-10T11:07:40.389Z,18.70
2018-04-10T11:10:08.247Z,18.33
2018-04-10T11:12:36.226Z,18.67
2018-04-10T11:15:04.144Z,18.23
2018-04-10T11:17:32.078Z,19.03
2018-04-10T11:19:59.954Z,18.73
2018-04-10T11:22:27.877Z,18.60
2018-04-10T11:24:55.822Z,17.53
2018-04-10T11:27:23.713Z,18.77
2018-04-10T11:29:51.646Z,18.33
2018-04-10T11:32:19.525Z,17.40
2018-04-10T11:34:48.414Z,19.03
2018-04-10T11:37:16.307Z,18.33
2018-04-10T11:39:44.150Z,18.73
2018-04-10T11:42:12.065Z,18.07
2018-04-10T11:44:39.957Z,18.40
2018-04-10T11:47:07.909Z,16.93
2018-04-10T11:49:35.797Z,16.87
2018-04-10T11:52:03.837Z,17.07
2018-04-10T11:54:31.710Z,18.03
2018-04-10T11:56:59.585Z,17.10
2018-04-10T11:59:27.515Z,16.87
2018-04-10T12:01:55.390Z,18.50
2018-04-10T12:04:23.306Z,17.07
2018-04-10T12:06:51.276Z,16.97
2018-04-10T12:09:19.147Z,17.77
2018-04-10T12:11:47.094Z,17.73
2018-04-10T12:14:16.545Z,16.93
2018-04-10T12:16:45.298Z,16.13
2018-04-10T12:19:13.187Z,16.63
2018-04-10T12:21:41.053Z,15.07
2018-04-10T12:24:08.979Z,15.23
2018-04-10T12:26:36.958Z,14.37
2018-04-10T12:29:04.814Z,14.77
2018-04-10T12:31:32.687Z,13.50
2018-04-10T12:34:00.547Z,11.73
2018-04-10T12:36:28.427Z,10.97
2018-04-10T12:38:56.282Z,11.57
2018-04-10T12:41:24.171Z,13.23
2018-04-10T12:43:52.039Z,9.63
2018-04-10T12:46:19.922Z,10.87
2018-04-10T12:48:47.756Z,11.57
2018-04-10T12:51:15.729Z,12.20
2018-04-10T12:53:43.625Z,8.87
2018-04-10T12:56:11.766Z,8.83
2018-04-10T12:58:39.650Z,8.07
2018-04-10T13:01:07.543Z,8.20
2018-04-10T13:03:35.416Z,7.73
2018-04-10T13:06:03.290Z,8.60
2018-04-10T13:08:31.173Z,8.77
2018-04-10T13:10:59.021Z,9.70
2018-04-10T13:13:26.947Z,9.57
2018-04-10T13:15:54.807Z,9.93
2018-04-10T13:18:22.651Z,10.20
2018-04-10T13:20:50.557Z,11.30
2018-04-10T13:23:18.430Z,12.67
2018-04-10T13:25:46.283Z,14.07
2018-04-10T13:28:14.231Z,15.10
2018-04-10T13:30:42.167Z,15.93
2018-04-10T13:33:10.010Z,16.30
2018-04-10T13:35:37.874Z,15.63
2018-04-10T13:38:05.871Z,14.67
2018-04-10T13:40:33.737Z,16.27
2018-04-10T13:43:01.674Z,15.73
2018-04-10T13:45:29.568Z,21.30
2018-04-10T13:47:57.406Z,14.90
2018-04-10T13:50:25.280Z,15.20
2018-04-10T13:52:53.131Z,15.73
2018-04-10T13:55:20.987Z,15.87
2018-04-10T13:57:48.880Z,16.00
2018-04-10T14:00:16.751Z,17.30
2018-04-10T14:02:44.610Z,16.40
2018-04-10T14:05:12.479Z,16.83
2018-04-10T14:07:40.437Z,16.70
2018-04-10T14:10:08.294Z,17.30
2018-04-10T14:12:36.165Z,15.70
2018-04-10T14:15:04.028Z,15.93
2018-04-10T14:17:31.888Z,15.60
2018-04-10T14:19:59.769Z,15.33
2018-04-10T14:22:27.621Z,16.00
2018-04-10T14:24:55.495Z,14.90
2018-04-10T14:27:23.377Z,14.00
2018-04-10T14:29:51.262Z,14.90
2018-04-10T14:32:19.107Z,13.60
2018-04-10T14:34:46.998Z,13.40
2018-04-10T14:37:14.902Z,13.47
2018-04-10T14:39:42.886Z,14.03
2018-04-10T14:42:10.770Z,13.00
2018-04-10T14:44:38.614Z,12.87
2018-04-10T14:47:06.484Z,13.10
2018-04-10T14:49:34.381Z,13.00
2018-04-10T14:52:02.255Z,14.17
2018-04-10T14:54:30.102Z,13.50
2018-04-10T14:56:58.019Z,13.60
2018-04-10T14:59:25.901Z,12.93
2018-04-10T15:01:53.800Z,13.27
2018-04-10T15:04:21.669Z,12.53
2018-04-10T15:06:49.521Z,13.53
2018-04-10T15:09:17.374Z,13.00
2018-04-10T15:11:45.267Z,14.23
2018-04-10T15:14:13.118Z,14.30
2018-04-10T15:16:40.978Z,13.90
2018-04-10T15:19:08.873Z,13.60
2018-04-10T15:21:36.785Z,12.90
2018-04-10T15:24:04.631Z,14.10
2018-04-10T15:26:32.577Z,12.90
2018-04-10T15:29:00.425Z,13.60
2018-04-10T15:31:28.279Z,12.47
2018-04-10T15:33:56.211Z,12.33
2018-04-10T15:36:24.117Z,12.80
2018-04-10T15:38:51.970Z,12.53
2018-04-10T15:41:19.834Z,13.80
2018-04-10T15:43:47.682Z,10.33
2018-04-10T15:46:15.536Z,13.10
2018-04-10T15:48:43.426Z,11.67
2018-04-10T15:51:11.354Z,12.23
2018-04-10T15:53:39.218Z,11.57
2018-04-10T15:56:07.107Z,11.07
2018-04-10T15:58:35.001Z,11.17
2018-04-10T16:01:02.849Z,10.00
2018-04-10T16:03:30.749Z,9.87
2018-04-10T16:05:58.614Z,9.17
2018-04-10T16:08:26.462Z,9.50
2018-04-10T16:10:54.353Z,9.17
2018-04-10T16:13:22.286Z,9.27
2018-04-10T16:15:50.268Z,9.87
2018-04-10T16:18:18.135Z,9.33
2018-04-10T16:20:46.029Z,8.63
2018-04-10T16:23:13.979Z,8.83
2018-04-10T16:25:41.861Z,9.17
2018-04-10T16:28:09.779Z,8.37
2018-04-10T16:30:37.649Z,8.77
2018-04-10T16:33:05.498Z,9.23
2018-04-10T16:35:33.367Z,7.77
2018-04-10T16:38:01.290Z,6.80
2018-04-10T16:40:29.161Z,7.20
2018-04-10T16:42:57.003Z,7.00
2018-04-10T16:45:24.842Z,7.60
2018-04-10T16:47:52.731Z,4.67
2018-04-10T16:50:20.579Z,6.27
2018-04-10T16:52:48.462Z,6.23
2018-04-10T16:55:16.318Z,5.80
2018-04-10T16:57:44.322Z,5.10
2018-04-10T17:00:12.193Z,5.90
2018-04-10T17:02:40.025Z,4.60
2018-04-10T17:05:07.891Z,4.57
2018-04-10T17:07:35.755Z,3.70
2018-04-10T17:10:03.581Z,3.33
2018-04-10T17:12:31.492Z,3.80
2018-04-10T17:14:59.340Z,4.37
2018-04-10T17:17:27.354Z,3.50
2018-04-10T17:19:55.217Z,3.73
2018-04-10T17:22:23.054Z,3.60
2018-04-10T17:24:51.750Z,3.80
2018-04-10T17:27:19.623Z,3.93
2018-04-10T17:29:47.557Z,3.60
2018-04-10T17:32:15.422Z,4.00
2018-04-10T17:34:43.306Z,3.90
2018-04-10T17:37:11.171Z,4.27
2018-04-10T17:39:39.026Z,3.57
2018-04-10T17:42:06.898Z,4.50
2018-04-10T17:44:34.733Z,4.27
2018-04-10T17:47:02.587Z,4.20
2018-04-10T17:49:30.438Z,3.17
2018-04-10T17:51:58.273Z,3.90
2018-04-10T17:54:26.139Z,4.13
2018-04-10T17:56:53.970Z,4.50
2018-04-10T17:59:21.812Z,4.60
2018-04-10T18:01:49.723Z,3.33
2018-04-10T18:04:17.573Z,4.10
2018-04-10T18:06:45.554Z,3.83
2018-04-10T18:09:13.410Z,4.30
2018-04-10T18:11:41.634Z,3.23
2018-04-10T18:14:20.392Z,4.33
2018-04-10T18:16:48.724Z,5.07
2018-04-10T18:19:16.737Z,4.40
2018-04-10T18:21:44.741Z,5.37
2018-04-10T18:24:12.650Z,4.73
2018-04-10T18:26:40.540Z,4.10
2018-04-10T18:29:08.381Z,4.90
2018-04-10T18:31:36.355Z,4.60
2018-04-10T18:34:04.516Z,4.00
2018-04-10T18:36:33.004Z,3.73
2018-04-10T18:39:01.349Z,4.87
2018-04-10T18:41:29.519Z,4.70
2018-04-10T18:43:57.954Z,4.97
2018-04-10T18:46:26.082Z,5.50
2018-04-10T18:48:54.106Z,10.00
2018-04-10T18:51:22.076Z,9.33
2018-04-10T18:53:49.953Z,12.30
2018-04-10T18:56:17.799Z,16.83
2018-04-10T18:58:45.683Z,14.50
2018-04-10T19:01:13.578Z,16.53
2018-04-10T19:03:41.460Z,18.23
2018-04-10T19:06:09.326Z,18.90
2018-04-10T19:08:37.187Z,18.90
2018-04-10T19:11:05.134Z,19.77
2018-04-10T19:13:32.993Z,20.07
2018-04-10T19:16:00.847Z,20.80
2018-04-10T19:18:28.739Z,19.40
2018-04-10T19:20:56.607Z,21.20
2018-04-10T19:23:24.507Z,20.60
2018-04-10T19:25:52.465Z,21.60
2018-04-10T19:28:20.325Z,20.33
2018-04-10T19:30:48.249Z,23.67
2018-04-10T19:33:16.557Z,21.80
2018-04-10T19:35:44.445Z,20.33
2018-04-10T19:38:12.682Z,21.40
2018-04-10T19:40:40.558Z,28.43
2018-04-10T19:43:08.419Z,21.53
2018-04-10T19:45:36.250Z,27.50
2018-04-10T19:48:04.124Z,20.60
2018-04-10T19:50:32.002Z,22.03
2018-04-10T19:52:59.879Z,25.07
2018-04-10T19:55:27.814Z,19.47
2018-04-10T19:57:56.044Z,20.33
2018-04-10T20:00:25.207Z,22.47
2018-04-10T20:02:53.748Z,20.27
2018-04-10T20:05:21.596Z,23.50
2018-04-10T20:07:49.453Z,23.03
2018-04-10T20:10:17.350Z,21.10
2018-04-10T20:12:45.348Z,23.13
2018-04-10T20:15:13.263Z,24.07
2018-04-10T20:17:41.239Z,21.37
2018-04-10T20:20:09.156Z,21.27
2018-04-10T20:22:37.039Z,25.33
2018-04-10T20:25:04.946Z,22.80
2018-04-10T20:27:32.850Z,25.13
2018-04-10T20:30:00.739Z,23.80
2018-04-10T20:32:28.598Z,22.53
2018-04-10T20:35:13.253Z,23.90
2018-04-10T20:37:41.136Z,27.83
2018-04-10T20:40:09.050Z,27.97
2018-04-10T20:42:37.164Z,24.00
2018-04-10T20:45:05.166Z,26.27
2018-04-10T20:47:33.185Z,25.80
2018-04-10T20:50:01.164Z,24.50
2018-04-10T20:52:29.061Z,20.80
2018-04-10T20:54:56.942Z,25.77
2018-04-10T20:57:25.219Z,23.90
2018-04-10T20:59:53.079Z,25.53
2018-04-10T21:02:20.989Z,26.13
2018-04-10T21:04:48.857Z,26.00
2018-04-10T21:07:16.825Z,26.30
2018-04-10T21:09:44.735Z,25.10
2018-04-10T21:12:12.701Z,24.37
2018-04-10T21:14:40.556Z,24.97
2018-04-10T21:17:08.591Z,26.10
2018-04-10T21:19:36.466Z,23.67
2018-04-10T21:22:04.645Z,27.77
2018-04-10T21:24:32.526Z,24.70
2018-04-10T21:27:00.430Z,25.03
2018-04-10T21:29:28.371Z,30.50
2018-04-10T21:31:56.209Z,33.40
2018-04-10T21:34:24.126Z,26.00
2018-04-10T21:36:52.042Z,26.27
2018-04-10T21:39:19.920Z,24.97
2018-04-10T21:41:47.822Z,23.97
2018-04-10T21:44:15.654Z,25.97
2018-04-10T21:46:43.489Z,25.60
2018-04-10T21:49:11.346Z,27.40
2018-04-10T21:51:39.333Z,23.33
2018-04-10T21:54:07.167Z,28.27
2018-04-10T21:56:35.046Z,24.27
2018-04-10T21:59:02.893Z,27.50
2018-04-10T22:01:30.731Z,27.67
2018-04-10T22:03:58.594Z,29.07
2018-04-10T22:06:26.450Z,25.47
2018-04-10T22:08:54.303Z,25.83
2018-04-10T22:11:22.182Z,27.03
2018-04-10T22:13:50.021Z,24.50
2018-04-10T22:16:17.903Z,23.90
2018-04-10T22:18:45.755Z,24.27
2018-04-10T22:21:13.582Z,24.67
2018-04-10T22:23:41.457Z,22.90
2018-04-10T22:26:09.332Z,26.23
2018-04-10T22:28:37.181Z,23.97
2018-04-10T22:31:05.461Z,24.70
2018-04-10T22:33:33.290Z,23.53
2018-04-10T22:36:01.122Z,24.37
2018-04-10T22:38:29.023Z,24.30
2018-04-10T22:40:56.854Z,24.17
2018-04-10T22:43:24.683Z,24.60
2018-04-10T22:45:52.580Z,23.80
2018-04-10T22:48:20.943Z,25.80
2018-04-10T22:50:48.940Z,24.73
2018-04-10T22:53:16.951Z,25.53
2018-04-10T22:55:44.931Z,26.73
2018-04-10T22:58:13.102Z,24.80
2018-04-10T23:00:44.716Z,26.07
2018-04-10T23:03:12.685Z,28.03
2018-04-10T23:05:42.644Z,24.03
2018-04-10T23:08:10.871Z,26.30
2018-04-10T23:10:39.760Z,27.10
2018-04-10T23:13:07.751Z,25.80
2018-04-10T23:15:35.884Z,25.77
2018-04-10T23:18:03.999Z,26.63
2018-04-10T23:20:32.077Z,25.13
2018-04-10T23:23:00.194Z,25.03
2018-04-10T23:25:28.173Z,27.07
2018-04-10T23:27:56.752Z,25.47
2018-04-10T23:30:24.603Z,26.07
2018-04-10T23:32:52.779Z,25.23
2018-04-10T23:35:20.782Z,25.17
2018-04-10T23:37:48.862Z,26.67
2018-04-10T23:40:17.032Z,24.57
2018-04-10T23:42:45.439Z,25.17
2018-04-10T23:45:13.607Z,24.37
2018-04-10T23:47:41.648Z,24.40
2018-04-10T23:50:09.586Z,21.77
2018-04-10T23:52:37.623Z,22.90
2018-04-10T23:55:05.515Z,22.70
2018-04-10T23:57:33.694Z,20.93
